createdAt,value
2022-11-20T00:01:21.842Z,101248.66
2022-11-20T00:03:48.892Z,101242.16
2022-11-20T00:06:18.421Z,101247.41
2022-11-20T00:08:45.661Z,101235.34
2022-11-20T00:11:16.373Z,101232.91
2022-11-20T00:13:48.143Z,101248.75
2022-11-20T00:16:17.552Z,101246.34
2022-11-20T00:18:44.915Z,101255.25
2022-11-20T00:21:14.156Z,101262.31
2022-11-20T00:23:40.844Z,101258.00
2022-11-20T00:26:09.253Z,101251.19
2022-11-20T00:28:35.684Z,101245.00
2022-11-20T00:31:10.783Z,101221.34
2022-11-20T00:33:37.290Z,101229.34
2022-11-20T00:36:07.230Z,101241.28
2022-11-20T00:38:34.595Z,101224.28
2022-11-20T00:41:03.857Z,101237.00
2022-11-20T00:43:30.363Z,101234.91
2022-11-20T00:45:58.562Z,101234.81
2022-11-20T00:48:25.448Z,101228.41
2022-11-20T00:50:51.996Z,101232.59
2022-11-20T00:53:18.646Z,101219.59
2022-11-20T00:55:53.977Z,101223.97
2022-11-20T00:58:20.437Z,101229.47
2022-11-20T01:00:46.897Z,101227.38
2022-11-20T01:03:13.423Z,101222.25
2022-11-20T01:05:39.818Z,101215.47
2022-11-20T01:08:06.257Z,101219.06
2022-11-20T01:10:33.719Z,101213.94
2022-11-20T01:13:22.902Z,101209.81
2022-11-20T01:15:52.122Z,101209.28
2022-11-20T01:18:18.575Z,101211.09
2022-11-20T01:20:45.011Z,101212.47
2022-11-20T01:23:12.542Z,101221.56
2022-11-20T01:25:38.939Z,101227.97
2022-11-20T01:28:05.334Z,101217.56
2022-11-20T01:30:31.845Z,101195.59
2022-11-20T01:32:58.228Z,101213.44
2022-11-20T01:35:24.686Z,101203.88
2022-11-20T01:37:51.435Z,101197.22
2022-11-20T01:40:17.980Z,101196.69
2022-11-20T01:43:20.832Z,101209.88
2022-11-20T01:46:05.750Z,101205.84
2022-11-20T01:48:47.319Z,101206.28
2022-11-20T01:51:25.236Z,101214.06
2022-11-20T01:53:55.396Z,101209.75
2022-11-20T01:56:22.530Z,101192.50
2022-11-20T01:58:54.505Z,101182.03
2022-11-20T02:01:21.922Z,101193.88
2022-11-20T02:03:49.461Z,101205.41
2022-11-20T02:06:24.146Z,101210.13
2022-11-20T02:08:51.748Z,101214.44
2022-11-20T02:11:18.305Z,101205.84
2022-11-20T02:13:45.666Z,101208.41
2022-11-20T02:16:26.040Z,101199.53
2022-11-20T02:18:55.711Z,101195.59
2022-11-20T02:22:00.985Z,101186.31
2022-11-20T02:24:27.509Z,101195.69
2022-11-20T02:27:07.269Z,101201.63
2022-11-20T02:29:38.925Z,101202.66
2022-11-20T02:32:05.411Z,101203.84
2022-11-20T02:34:32.685Z,101199.94
2022-11-20T02:37:00.748Z,101194.13
2022-11-20T02:39:29.329Z,101188.53
2022-11-20T02:41:57.076Z,101190.50
2022-11-20T02:44:24.661Z,101183.50
2022-11-20T02:46:51.090Z,101190.22
2022-11-20T02:49:18.017Z,101176.31
2022-11-20T02:51:45.055Z,101178.38
2022-11-20T02:54:11.490Z,101176.41
2022-11-20T02:56:39.589Z,101179.34
2022-11-20T02:59:06.726Z,101174.97
2022-11-20T03:01:33.286Z,101156.16
2022-11-20T03:03:59.786Z,101152.91
2022-11-20T03:06:26.241Z,101141.69
2022-11-20T03:08:52.735Z,101145.25
2022-11-20T03:11:19.166Z,101154.50
2022-11-20T03:13:45.735Z,101147.56
2022-11-20T03:16:15.413Z,101139.72
2022-11-20T03:18:43.110Z,101132.81
2022-11-20T03:21:11.154Z,101121.91
2022-11-20T03:23:38.122Z,101133.59
2022-11-20T03:26:13.169Z,101123.44
2022-11-20T03:28:40.011Z,101121.13
2022-11-20T03:31:09.108Z,101125.72
2022-11-20T03:33:35.578Z,101129.53
2022-11-20T03:36:06.668Z,101125.41
2022-11-20T03:38:33.220Z,101116.19
2022-11-20T03:41:06.718Z,101125.63
2022-11-20T03:43:33.941Z,101110.84
2022-11-20T03:46:01.037Z,101110.03
2022-11-20T03:48:28.346Z,101108.34
2022-11-20T03:51:10.071Z,101109.94
2022-11-20T03:53:36.634Z,101101.44
2022-11-20T03:56:03.644Z,101098.19
2022-11-20T03:58:30.174Z,101105.63
2022-11-20T04:00:56.810Z,101103.56
2022-11-20T04:03:23.308Z,101110.56
2022-11-20T04:05:49.696Z,101105.25
2022-11-20T04:08:16.173Z,101091.63
2022-11-20T04:10:42.556Z,101100.28
2022-11-20T04:13:09.001Z,101074.00
2022-11-20T04:15:38.346Z,101083.13
2022-11-20T04:18:05.228Z,101078.94
2022-11-20T04:20:31.624Z,101068.47
2022-11-20T04:22:58.003Z,101075.50
2022-11-20T04:25:24.396Z,101068.03
2022-11-20T04:27:50.814Z,101059.00
2022-11-20T04:30:17.342Z,101064.88
2022-11-20T04:32:43.806Z,101056.28
2022-11-20T04:35:10.185Z,101068.53
2022-11-20T04:37:36.615Z,101064.13
2022-11-20T04:40:03.114Z,101061.81
2022-11-20T04:42:29.584Z,101064.03
2022-11-20T04:44:56.202Z,101058.72
2022-11-20T04:47:23.336Z,101064.88
2022-11-20T04:49:49.776Z,101066.16
2022-11-20T04:52:16.200Z,101051.06
2022-11-20T04:54:42.595Z,101064.53
2022-11-20T04:57:14.094Z,101061.72
2022-11-20T04:59:41.057Z,101062.47
2022-11-20T05:02:07.727Z,101068.53
2022-11-20T05:04:34.183Z,101062.56
2022-11-20T05:07:00.584Z,101064.53
2022-11-20T05:09:27.140Z,101066.31
2022-11-20T05:11:53.517Z,101065.13
2022-11-20T05:14:19.924Z,101063.91
2022-11-20T05:16:46.674Z,101064.63
2022-11-20T05:19:13.169Z,101076.56
2022-11-20T05:21:39.585Z,101075.19
2022-11-20T05:24:06.808Z,101078.06
2022-11-20T05:26:33.629Z,101080.63
2022-11-20T05:29:00.060Z,101089.75
2022-11-20T05:31:28.361Z,101080.88
2022-11-20T05:33:56.218Z,101084.88
2022-11-20T05:36:22.811Z,101070.72
2022-11-20T05:38:51.089Z,101060.16
2022-11-20T05:41:20.105Z,101054.59
2022-11-20T05:43:47.977Z,101049.88
2022-11-20T05:46:16.774Z,101053.44
2022-11-20T05:48:44.616Z,101046.75
2022-11-20T05:51:13.337Z,101046.53
2022-11-20T05:53:43.736Z,101043.06
2022-11-20T05:56:16.082Z,101044.44
2022-11-20T05:58:42.825Z,101037.63
2022-11-20T06:01:19.544Z,101043.28
2022-11-20T06:03:48.473Z,101041.44
2022-11-20T06:06:16.153Z,101033.38
2022-11-20T06:08:42.700Z,101034.97
2022-11-20T06:11:11.389Z,101031.59
2022-11-20T06:13:42.063Z,101027.97
2022-11-20T06:16:09.981Z,101028.66
2022-11-20T06:18:36.647Z,101025.44
2022-11-20T06:21:09.082Z,101021.88
2022-11-20T06:23:36.840Z,101014.25
2022-11-20T06:26:15.332Z,101019.59
2022-11-20T06:28:42.565Z,101011.22
2022-11-20T06:31:12.762Z,101014.34
2022-11-20T06:33:39.128Z,101017.88
2022-11-20T06:36:10.373Z,101006.88
2022-11-20T06:38:38.942Z,101004.28
2022-11-20T06:41:07.047Z,101002.63
2022-11-20T06:43:33.427Z,101009.50
2022-11-20T06:46:00.542Z,101001.13
2022-11-20T06:48:28.680Z,101008.69
2022-11-20T06:50:55.107Z,101003.63
2022-11-20T06:53:22.400Z,101004.47
2022-11-20T06:55:49.812Z,101005.72
2022-11-20T06:58:16.693Z,101003.22
2022-11-20T07:00:43.541Z,100999.84
2022-11-20T07:03:11.722Z,100998.28
2022-11-20T07:05:39.409Z,100999.22
2022-11-20T07:08:06.047Z,101007.00
2022-11-20T07:10:33.344Z,101014.75
2022-11-20T07:13:00.414Z,101000.53
2022-11-20T07:15:26.869Z,101002.94
2022-11-20T07:17:53.689Z,101002.50
2022-11-20T07:20:20.200Z,100983.78
2022-11-20T07:22:46.603Z,100998.97
2022-11-20T07:25:13.097Z,100995.63
2022-11-20T07:27:39.479Z,101009.44
2022-11-20T07:30:06.473Z,101013.97
2022-11-20T07:32:32.889Z,101008.00
2022-11-20T07:34:59.816Z,100999.41
2022-11-20T07:37:26.285Z,100995.13
2022-11-20T07:39:52.695Z,100990.72
2022-11-20T07:42:19.097Z,100991.97
2022-11-20T07:44:45.482Z,100986.63
2022-11-20T07:47:11.903Z,100988.22
2022-11-20T07:49:38.396Z,100984.31
2022-11-20T07:52:05.499Z,100990.00
2022-11-20T07:54:31.943Z,100994.81
2022-11-20T07:56:58.358Z,100994.47
2022-11-20T07:59:24.711Z,101003.81
2022-11-20T08:01:51.356Z,101007.97
2022-11-20T08:04:17.864Z,101007.97
2022-11-20T08:06:44.320Z,101013.03
2022-11-20T08:09:10.708Z,100998.03
2022-11-20T08:11:55.614Z,101004.97
2022-11-20T08:14:22.157Z,100992.38
2022-11-20T08:16:50.165Z,100999.00
2022-11-20T08:19:18.619Z,100997.00
2022-11-20T08:21:45.693Z,100993.19
2022-11-20T08:24:13.080Z,100994.78
2022-11-20T08:26:40.390Z,100990.16
2022-11-20T08:29:07.366Z,100990.97
2022-11-20T08:31:34.390Z,100993.41
2022-11-20T08:34:02.209Z,100991.38
2022-11-20T08:36:34.897Z,100988.47
2022-11-20T08:39:01.748Z,100996.59
2022-11-20T08:41:28.139Z,100984.97
2022-11-20T08:44:02.950Z,100987.13
2022-11-20T08:46:34.832Z,100988.00
2022-11-20T08:49:01.369Z,100974.25
2022-11-20T08:51:27.864Z,100977.63
2022-11-20T08:53:54.248Z,100975.69
2022-11-20T08:56:20.745Z,100984.91
2022-11-20T08:59:18.022Z,100994.97
2022-11-20T09:01:33.832Z,100972.09
2022-11-20T09:04:00.855Z,100964.84
2022-11-20T09:06:27.334Z,100980.44
2022-11-20T09:08:54.578Z,100975.94
2022-11-20T09:11:22.903Z,100964.41
2022-11-20T09:13:49.911Z,100956.44
2022-11-20T09:16:16.372Z,100960.59
2022-11-20T09:18:42.813Z,100958.59
2022-11-20T09:21:14.914Z,100962.56
2022-11-20T09:23:41.773Z,100958.28
2022-11-20T09:26:12.960Z,100950.91
2022-11-20T09:28:39.777Z,100952.22
2022-11-20T09:31:07.916Z,100952.59
2022-11-20T09:33:34.582Z,100941.28
2022-11-20T09:36:01.076Z,100937.34
2022-11-20T09:38:27.625Z,100932.50
2022-11-20T09:40:59.622Z,100926.66
2022-11-20T09:43:35.214Z,100915.72
2022-11-20T09:46:18.084Z,100907.84
2022-11-20T09:49:25.225Z,100907.34
2022-11-20T09:51:59.650Z,100904.41
2022-11-20T09:54:32.828Z,100894.38
2022-11-20T09:57:02.239Z,100887.91
2022-11-20T09:59:56.803Z,100884.34
2022-11-20T10:02:47.677Z,100882.78
2022-11-20T10:05:30.977Z,100883.63
2022-11-20T10:08:15.110Z,100871.09
2022-11-20T10:10:50.808Z,100848.41
2022-11-20T10:13:54.709Z,100861.78
2022-11-20T10:16:41.512Z,100864.28
2022-11-20T10:19:23.407Z,100850.06
2022-11-20T10:21:55.980Z,100850.19
2022-11-20T10:24:38.693Z,100844.69
2022-11-20T10:27:41.250Z,100837.53
2022-11-20T10:30:14.249Z,100833.59
2022-11-20T10:32:44.150Z,100814.13
2022-11-20T10:35:25.395Z,100819.34
2022-11-20T10:37:57.531Z,100812.06
2022-11-20T10:40:39.154Z,100810.84
2022-11-20T10:43:15.128Z,100802.34
2022-11-20T10:45:57.101Z,100801.72
2022-11-20T10:48:26.366Z,100793.72
2022-11-20T10:51:18.984Z,100783.91
2022-11-20T10:54:02.141Z,100777.31
2022-11-20T10:56:51.316Z,100774.19
2022-11-20T10:59:47.936Z,100770.59
2022-11-20T11:02:18.167Z,100768.09
2022-11-20T11:04:47.542Z,100766.88
2022-11-20T11:07:36.746Z,100767.00
2022-11-20T11:10:17.515Z,100733.28
2022-11-20T11:12:49.257Z,100760.47
2022-11-20T11:15:27.721Z,100754.91
2022-11-20T11:17:54.787Z,100740.91
2022-11-20T11:20:26.430Z,100749.50
2022-11-20T11:22:56.025Z,100741.50
2022-11-20T11:25:29.094Z,100732.94
2022-11-20T11:28:02.960Z,100725.50
2022-11-20T11:30:31.942Z,100721.38
2022-11-20T11:33:11.117Z,100712.25
2022-11-20T11:35:49.959Z,100710.75
2022-11-20T11:38:22.956Z,100695.38
2022-11-20T11:40:49.381Z,100692.94
2022-11-20T11:43:44.354Z,100683.25
2022-11-20T11:46:32.166Z,100698.25
2022-11-20T11:49:10.852Z,100681.09
2022-11-20T11:51:48.895Z,100675.72
2022-11-20T11:54:21.714Z,100678.34
2022-11-20T11:56:48.229Z,100668.97
2022-11-20T11:59:26.244Z,100658.06
2022-11-20T12:02:00.588Z,100653.22
2022-11-20T12:04:56.013Z,100648.41
2022-11-20T12:07:47.250Z,100637.59
2022-11-20T12:10:36.857Z,100622.25
2022-11-20T12:13:16.420Z,100612.53
2022-11-20T12:15:47.212Z,100602.00
2022-11-20T12:18:18.738Z,100582.22
2022-11-20T12:20:58.800Z,100590.91
2022-11-20T12:23:52.479Z,100584.28
2022-11-20T12:26:43.679Z,100592.03
2022-11-20T12:29:39.236Z,100596.22
2022-11-20T12:32:14.491Z,100600.34
2022-11-20T12:34:49.375Z,100608.38
2022-11-20T12:37:56.770Z,100610.03
2022-11-20T12:40:53.296Z,100581.50
2022-11-20T12:43:54.721Z,100594.25
2022-11-20T12:46:47.877Z,100593.97
2022-11-20T12:49:26.180Z,100592.31
2022-11-20T12:52:03.598Z,100592.75
2022-11-20T12:54:49.752Z,100594.72
2022-11-20T12:57:55.237Z,100588.47
2022-11-20T13:00:23.694Z,100591.22
2022-11-20T13:03:01.111Z,100570.31
2022-11-20T13:05:37.956Z,100569.38
2022-11-20T13:08:08.282Z,100563.00
2022-11-20T13:10:50.731Z,100542.63
2022-11-20T13:13:24.528Z,100539.28
2022-11-20T13:16:09.143Z,100520.88
2022-11-20T13:18:40.452Z,100511.47
2022-11-20T13:21:21.018Z,100518.38
2022-11-20T13:23:47.675Z,100515.59
2022-11-20T13:26:23.750Z,100509.25
2022-11-20T13:29:19.173Z,100519.91
2022-11-20T13:31:48.024Z,100500.13
2022-11-20T13:34:28.151Z,100510.47
2022-11-20T13:36:56.994Z,100501.59
2022-11-20T13:39:27.341Z,100496.09
2022-11-20T13:42:21.082Z,100504.53
2022-11-20T13:44:56.287Z,100494.84
2022-11-20T13:47:27.924Z,100488.72
2022-11-20T13:49:56.568Z,100487.22
2022-11-20T13:52:50.856Z,100489.56
2022-11-20T13:55:39.118Z,100487.09
2022-11-20T13:58:11.674Z,100483.19
2022-11-20T14:01:05.088Z,100484.31
2022-11-20T14:06:28.162Z,100473.22
2022-11-20T14:08:54.841Z,100475.97
2022-11-20T14:11:26.760Z,100468.22
2022-11-20T14:14:06.502Z,100459.78
2022-11-20T14:16:36.989Z,100458.09
2022-11-20T14:19:23.299Z,100443.00
2022-11-20T14:21:52.922Z,100447.44
2022-11-20T14:24:21.879Z,100445.34
2022-11-20T14:26:49.355Z,100439.13
2022-11-20T14:29:18.230Z,100424.28
2022-11-20T14:31:51.176Z,100417.25
2022-11-20T14:34:32.743Z,100409.75
2022-11-20T14:37:06.357Z,100400.72
2022-11-20T14:39:37.767Z,100400.84
2022-11-20T14:42:16.026Z,100395.03
2022-11-20T14:44:43.684Z,100388.09
2022-11-20T14:47:13.770Z,100379.94
2022-11-20T14:49:41.672Z,100370.34
2022-11-20T14:52:15.540Z,100366.63
2022-11-20T14:54:55.558Z,100375.19
2022-11-20T14:57:33.184Z,100364.25
2022-11-20T15:00:08.588Z,100371.88
2022-11-20T15:02:35.214Z,100367.41
2022-11-20T15:05:06.132Z,100363.69
2022-11-20T15:07:38.115Z,100357.72
2022-11-20T15:10:08.555Z,100351.22
2022-11-20T15:12:38.283Z,100354.00
2022-11-20T15:15:06.597Z,100353.00
2022-11-20T15:17:38.389Z,100348.44
2022-11-20T15:20:12.694Z,100344.94
2022-11-20T15:22:39.094Z,100343.00
2022-11-20T15:25:15.965Z,100340.53
2022-11-20T15:27:43.366Z,100345.03
2022-11-20T15:30:16.031Z,100340.91
2022-11-20T15:32:43.107Z,100333.47
2022-11-20T15:35:10.701Z,100333.47
2022-11-20T15:37:40.310Z,100334.13
2022-11-20T15:40:07.799Z,100331.22
2022-11-20T15:42:35.400Z,100323.44
2022-11-20T15:45:02.225Z,100321.63
2022-11-20T15:47:32.169Z,100325.25
2022-11-20T15:49:58.743Z,100314.72
2022-11-20T15:52:25.141Z,100309.31
2022-11-20T15:54:51.685Z,100319.25
2022-11-20T15:57:18.213Z,100310.97
2022-11-20T15:59:44.789Z,100304.44
2022-11-20T16:02:19.182Z,100309.41
2022-11-20T16:04:46.097Z,100307.59
2022-11-20T16:07:12.608Z,100301.03
2022-11-20T16:09:40.206Z,100295.34
2022-11-20T16:12:07.020Z,100292.72
2022-11-20T16:14:51.883Z,100293.53
2022-11-20T16:17:38.254Z,100296.03
2022-11-20T16:20:05.056Z,100291.88
2022-11-20T16:22:31.455Z,100283.25
2022-11-20T16:24:57.900Z,100284.56
2022-11-20T16:27:24.283Z,100290.84
2022-11-20T16:29:50.736Z,100289.16
2022-11-20T16:32:17.105Z,100290.84
2022-11-20T16:34:43.467Z,100290.22
2022-11-20T16:37:09.859Z,100279.69
2022-11-20T16:39:36.362Z,100278.19
2022-11-20T16:42:05.590Z,100279.38
2022-11-20T16:44:32.025Z,100286.31
2022-11-20T16:46:58.411Z,100271.25
2022-11-20T16:49:24.913Z,100279.63
2022-11-20T16:51:51.823Z,100269.88
2022-11-20T16:54:21.044Z,100258.66
2022-11-20T16:56:48.323Z,100259.19
2022-11-20T16:59:15.913Z,100256.72
2022-11-20T17:01:43.916Z,100256.88
2022-11-20T17:04:10.457Z,100270.88
2022-11-20T17:06:40.793Z,100266.56
2022-11-20T17:09:09.638Z,100269.53
2022-11-20T17:11:37.220Z,100262.44
2022-11-20T17:14:04.043Z,100267.41
2022-11-20T17:16:31.582Z,100275.47
2022-11-20T17:19:03.013Z,100270.03
2022-11-20T17:21:30.695Z,100272.69
2022-11-20T17:24:01.133Z,100269.88
2022-11-20T17:26:28.746Z,100270.41
2022-11-20T17:28:56.743Z,100287.59
2022-11-20T17:31:23.754Z,100278.31
2022-11-20T17:33:50.316Z,100295.50
2022-11-20T17:36:18.275Z,100298.81
2022-11-20T17:38:45.529Z,100290.91
2022-11-20T17:41:14.536Z,100290.91
2022-11-20T17:43:42.857Z,100300.16
2022-11-20T17:46:11.689Z,100281.69
2022-11-20T17:48:42.310Z,100285.19
2022-11-20T17:51:13.694Z,100281.84
2022-11-20T17:53:42.936Z,100279.91
2022-11-20T17:56:28.464Z,100270.63
2022-11-20T17:58:56.354Z,100278.75
2022-11-20T18:01:23.916Z,100283.91
2022-11-20T18:03:50.617Z,100295.25
2022-11-20T18:06:19.705Z,100296.09
2022-11-20T18:08:47.246Z,100287.19
2022-11-20T18:11:15.087Z,100287.88
2022-11-20T18:14:01.626Z,100293.16
2022-11-20T18:16:30.438Z,100283.75
2022-11-20T18:18:58.256Z,100293.00
2022-11-20T18:21:26.571Z,100284.66
2022-11-20T18:23:53.043Z,100284.66
2022-11-20T18:26:19.665Z,100272.91
2022-11-20T18:28:46.169Z,100267.47
2022-11-20T18:31:13.222Z,100281.84
2022-11-20T18:33:40.022Z,100286.97
2022-11-20T18:36:18.412Z,100298.94
2022-11-20T18:38:48.346Z,100297.00
2022-11-20T18:41:34.894Z,100287.28
2022-11-20T18:44:21.061Z,100283.34
2022-11-20T18:46:47.914Z,100283.69
2022-11-20T18:49:17.885Z,100281.75
2022-11-20T18:51:44.454Z,100266.91
2022-11-20T18:54:12.268Z,100269.25
2022-11-20T18:56:39.387Z,100272.84
2022-11-20T18:59:07.925Z,100261.50
2022-11-20T19:01:34.842Z,100259.75
2022-11-20T19:04:01.357Z,100269.63
2022-11-20T19:06:27.780Z,100264.03
2022-11-20T19:08:54.659Z,100273.63
2022-11-20T19:11:21.112Z,100246.53
2022-11-20T19:13:47.669Z,100276.38
2022-11-20T19:16:19.490Z,100284.34
2022-11-20T19:18:48.392Z,100286.81
2022-11-20T19:21:18.497Z,100289.44
2022-11-20T19:23:51.602Z,100292.91
2022-11-20T19:26:18.875Z,100298.69
2022-11-20T19:28:45.925Z,100290.94
2022-11-20T19:31:18.116Z,100304.28
2022-11-20T19:33:47.319Z,100289.28
2022-11-20T19:36:19.162Z,100300.53
2022-11-20T19:38:48.184Z,100296.88
2022-11-20T19:41:16.302Z,100306.31
2022-11-20T19:43:42.763Z,100305.47
2022-11-20T19:46:09.220Z,100307.28
2022-11-20T19:48:37.527Z,100297.88
2022-11-20T19:51:15.502Z,100301.31
2022-11-20T19:53:42.296Z,100297.88
2022-11-20T19:56:09.372Z,100290.13
2022-11-20T19:58:36.346Z,100292.91
2022-11-20T20:01:17.801Z,100288.31
2022-11-20T20:03:46.159Z,100301.84
2022-11-20T20:06:20.703Z,100305.16
2022-11-20T20:08:53.580Z,100301.47
2022-11-20T20:11:21.910Z,100308.78
2022-11-20T20:13:48.318Z,100309.63
2022-11-20T20:16:20.029Z,100318.03
2022-11-20T20:18:46.466Z,100297.03
2022-11-20T20:21:14.913Z,100317.31
2022-11-20T20:23:42.233Z,100309.84
2022-11-20T20:26:10.653Z,100319.28
2022-11-20T20:28:37.735Z,100315.28
2022-11-20T20:31:10.066Z,100322.56
2022-11-20T20:33:38.907Z,100318.13
2022-11-20T20:36:06.914Z,100317.97
2022-11-20T20:38:33.944Z,100320.63
2022-11-20T20:41:00.731Z,100321.63
2022-11-20T20:43:27.659Z,100314.00
2022-11-20T20:45:55.145Z,100314.28
2022-11-20T20:48:24.176Z,100322.19
2022-11-20T20:51:02.557Z,100329.31
2022-11-20T20:53:36.559Z,100326.81
2022-11-20T20:56:03.740Z,100322.38
2022-11-20T20:58:30.683Z,100322.06
2022-11-20T21:01:25.688Z,100329.16
2022-11-20T21:03:52.167Z,100343.44
2022-11-20T21:06:18.620Z,100326.53
2022-11-20T21:08:45.924Z,100326.53
2022-11-20T21:11:15.512Z,100337.75
2022-11-20T21:13:43.179Z,100332.47
2022-11-20T21:16:11.180Z,100330.66
2022-11-20T21:18:37.864Z,100332.47
2022-11-20T21:21:25.250Z,100336.91
2022-11-20T21:23:53.411Z,100333.44
2022-11-20T21:26:20.419Z,100333.28
2022-11-20T21:28:47.011Z,100334.28
2022-11-20T21:31:19.516Z,100345.34
2022-11-20T21:33:47.694Z,100344.03
2022-11-20T21:36:27.573Z,100345.34
2022-11-20T21:38:55.318Z,100358.91
2022-11-20T21:41:23.240Z,100347.50
2022-11-20T21:44:15.885Z,100363.19
2022-11-20T21:46:40.786Z,100378.31
2022-11-20T21:49:07.708Z,100373.34
2022-11-20T21:51:34.519Z,100372.81
2022-11-20T21:54:00.977Z,100387.84
2022-11-20T21:56:27.575Z,100365.91
2022-11-20T21:58:54.758Z,100371.19
2022-11-20T22:01:28.811Z,100372.97
2022-11-20T22:04:01.768Z,100372.31
2022-11-20T22:06:33.032Z,100367.88
2022-11-20T22:08:59.926Z,100371.94
2022-11-20T22:11:26.535Z,100371.41
2022-11-20T22:14:11.405Z,100370.91
2022-11-20T22:16:38.397Z,100385.19
2022-11-20T22:19:06.084Z,100389.47
2022-11-20T22:21:33.655Z,100395.88
2022-11-20T22:24:00.119Z,100402.00
2022-11-20T22:26:34.960Z,100398.38
2022-11-20T22:29:03.983Z,100402.13
2022-11-20T22:31:31.532Z,100408.75
2022-11-20T22:34:00.960Z,100405.00
2022-11-20T22:36:29.196Z,100408.59
2022-11-20T22:38:56.048Z,100414.88
2022-11-20T22:41:27.605Z,100418.34
2022-11-20T22:43:59.124Z,100430.38
2022-11-20T22:46:27.561Z,100427.75
2022-11-20T22:48:56.585Z,100426.75
2022-11-20T22:51:25.351Z,100435.34
2022-11-20T22:53:52.389Z,100439.81
2022-11-20T22:56:19.279Z,100439.94
2022-11-20T22:58:47.776Z,100447.72
2022-11-20T23:01:19.755Z,100456.44
2022-11-20T23:03:48.921Z,100458.38
2022-11-20T23:06:16.485Z,100460.38
2022-11-20T23:08:43.305Z,100458.94
2022-11-20T23:11:12.168Z,100460.44
2022-11-20T23:13:39.183Z,100462.25
2022-11-20T23:16:10.304Z,100456.13
2022-11-20T23:18:37.402Z,100458.66
2022-11-20T23:21:05.695Z,100463.63
2022-11-20T23:23:32.312Z,100462.47
2022-11-20T23:26:10.713Z,100456.41
2022-11-20T23:28:37.719Z,100460.69
2022-11-20T23:31:04.732Z,100453.75
2022-11-20T23:33:31.355Z,100447.66
2022-11-20T23:35:57.790Z,100457.19
2022-11-20T23:38:24.261Z,100454.56
2022-11-20T23:40:51.631Z,100458.19
2022-11-20T23:43:20.295Z,100455.72
2022-11-20T23:45:52.126Z,100462.94
2022-11-20T23:48:20.396Z,100467.81
2022-11-20T23:50:46.949Z,100475.03
2022-11-20T23:53:14.490Z,100483.94
2022-11-20T23:55:49.486Z,100471.19
2022-11-20T23:58:16.823Z,100494.50
